createdAt,value
2022-11-05T00:02:09.112Z,7.18
2022-11-05T00:04:57.118Z,7.17
2022-11-05T00:07:51.226Z,7.15
2022-11-05T00:10:23.975Z,7.08
2022-11-05T00:13:13.428Z,7.06
2022-11-05T00:16:01.158Z,7.04
2022-11-05T00:18:31.496Z,7.05
2022-11-05T00:21:01.904Z,7.03
2022-11-05T00:23:50.785Z,7.02
2022-11-05T00:26:21.496Z,7.00
2022-11-05T00:28:51.677Z,7.01
2022-11-05T00:31:21.970Z,6.98
2022-11-05T00:33:51.984Z,6.99
2022-11-05T00:36:22.480Z,6.97
2022-11-05T00:38:54.555Z,6.99
2022-11-05T00:41:24.765Z,6.97
2022-11-05T00:44:11.994Z,6.97
2022-11-05T00:46:42.253Z,6.96
2022-11-05T00:49:29.493Z,6.94
2022-11-05T00:52:20.535Z,6.97
2022-11-05T00:54:52.074Z,6.92
2022-11-05T00:57:22.465Z,6.93
2022-11-05T00:59:52.405Z,6.92
2022-11-05T01:02:22.885Z,6.93
2022-11-05T01:04:52.913Z,6.92
2022-11-05T01:07:23.256Z,6.82
2022-11-05T01:09:54.865Z,6.89
2022-11-05T01:12:25.373Z,6.88
2022-11-05T01:14:55.424Z,6.89
2022-11-05T01:17:25.644Z,6.92
2022-11-05T01:19:55.765Z,6.90
2022-11-05T01:22:26.063Z,6.88
2022-11-05T01:24:57.492Z,6.86
2022-11-05T01:27:28.003Z,6.86
2022-11-05T01:29:57.974Z,6.85
2022-11-05T01:32:28.278Z,6.82
2022-11-05T01:34:58.336Z,6.82
2022-11-05T01:37:28.742Z,6.84
2022-11-05T01:40:00.853Z,6.84
2022-11-05T01:42:33.197Z,6.82
2022-11-05T01:45:06.776Z,6.86
2022-11-05T01:48:02.411Z,6.83
2022-11-05T01:50:52.396Z,6.83
2022-11-05T01:53:28.154Z,6.82
2022-11-05T01:56:05.131Z,6.84
2022-11-05T01:58:41.186Z,6.82
2022-11-05T02:01:11.329Z,6.82
2022-11-05T02:03:43.185Z,6.81
2022-11-05T02:06:15.316Z,6.79
2022-11-05T02:08:56.719Z,6.79
2022-11-05T02:11:28.278Z,6.78
2022-11-05T02:13:58.696Z,6.81
2022-11-05T02:16:39.477Z,6.78
2022-11-05T02:19:41.299Z,6.82
2022-11-05T02:22:42.676Z,6.79
2022-11-05T02:25:36.456Z,6.78
2022-11-05T02:28:32.508Z,6.78
2022-11-05T02:31:10.097Z,6.80
2022-11-05T02:33:57.028Z,6.77
2022-11-05T02:36:40.049Z,6.83
2022-11-05T02:39:23.258Z,6.79
2022-11-05T02:42:06.958Z,6.81
2022-11-05T02:44:44.159Z,6.80
2022-11-05T02:47:25.575Z,6.77
2022-11-05T02:50:04.936Z,6.80
2022-11-05T02:52:44.665Z,6.79
2022-11-05T02:55:24.817Z,6.78
2022-11-05T02:57:54.996Z,6.78
2022-11-05T03:00:49.468Z,6.81
2022-11-05T03:03:31.188Z,6.77
2022-11-05T03:06:29.140Z,6.78
2022-11-05T03:09:25.576Z,6.78
2022-11-05T03:12:06.502Z,6.79
2022-11-05T03:14:45.526Z,6.78
2022-11-05T03:17:27.378Z,6.79
2022-11-05T03:20:09.627Z,6.77
2022-11-05T03:22:44.668Z,6.78
2022-11-05T03:25:19.966Z,6.77
2022-11-05T03:27:54.377Z,6.73
2022-11-05T03:30:25.479Z,6.76
2022-11-05T03:32:59.668Z,6.75
2022-11-05T03:35:36.723Z,6.75
2022-11-05T03:38:12.110Z,6.77
2022-11-05T03:40:45.719Z,6.75
2022-11-05T03:43:18.201Z,6.75
2022-11-05T03:45:54.961Z,6.76
2022-11-05T03:48:29.060Z,6.75
2022-11-05T03:51:08.772Z,6.74
2022-11-05T03:53:45.792Z,6.71
2022-11-05T03:56:22.875Z,6.73
2022-11-05T03:58:58.678Z,6.70
2022-11-05T04:01:31.555Z,6.68
2022-11-05T04:04:01.738Z,6.68
2022-11-05T04:06:50.979Z,6.67
2022-11-05T04:09:39.004Z,6.70
2022-11-05T04:12:27.507Z,6.71
2022-11-05T04:14:57.597Z,6.71
2022-11-05T04:17:26.886Z,6.69
2022-11-05T04:20:14.148Z,6.68
2022-11-05T04:23:03.237Z,6.67
2022-11-05T04:25:33.358Z,6.67
2022-11-05T04:28:03.720Z,6.66
2022-11-05T04:30:32.469Z,6.66
2022-11-05T04:33:05.452Z,6.69
2022-11-05T04:35:37.380Z,6.67
2022-11-05T04:38:11.466Z,6.65
2022-11-05T04:40:41.557Z,6.63
2022-11-05T04:43:15.625Z,6.66
2022-11-05T04:45:46.489Z,6.65
2022-11-05T04:48:17.937Z,6.65
2022-11-05T04:50:47.916Z,6.65
2022-11-05T04:53:19.666Z,6.65
2022-11-05T04:55:49.700Z,6.65
2022-11-05T04:58:19.947Z,6.66
2022-11-05T05:00:52.017Z,6.65
2022-11-05T05:03:22.376Z,6.61
2022-11-05T05:05:53.935Z,6.64
2022-11-05T05:08:25.979Z,6.65
2022-11-05T05:10:56.070Z,6.65
2022-11-05T05:13:26.499Z,6.62
2022-11-05T05:15:56.529Z,6.60
2022-11-05T05:18:27.125Z,6.60
2022-11-05T05:21:18.879Z,6.64
2022-11-05T05:23:50.996Z,6.62
2022-11-05T05:26:21.239Z,6.61
2022-11-05T05:28:51.591Z,6.60
2022-11-05T05:31:21.968Z,6.64
2022-11-05T05:33:54.674Z,6.66
2022-11-05T05:36:25.538Z,6.63
2022-11-05T05:38:57.389Z,6.64
2022-11-05T05:41:27.427Z,6.62
2022-11-05T05:43:57.940Z,6.61
2022-11-05T05:46:27.960Z,6.63
2022-11-05T05:48:58.415Z,6.62
2022-11-05T05:51:28.502Z,6.61
2022-11-05T05:54:00.202Z,6.64
2022-11-05T05:56:30.240Z,6.64
2022-11-05T05:59:00.641Z,6.64
2022-11-05T06:01:31.073Z,6.62
2022-11-05T06:04:01.701Z,6.61
2022-11-05T06:06:32.181Z,6.61
2022-11-05T06:09:04.363Z,6.63
2022-11-05T06:11:34.481Z,6.65
2022-11-05T06:14:04.941Z,6.65
2022-11-05T06:16:36.282Z,6.64
2022-11-05T06:19:06.731Z,6.67
2022-11-05T06:21:36.770Z,6.66
2022-11-05T06:24:09.421Z,6.67
2022-11-05T06:26:43.131Z,6.65
2022-11-05T06:29:13.748Z,6.65
2022-11-05T06:31:43.960Z,6.66
2022-11-05T06:34:14.598Z,6.67
2022-11-05T06:36:44.480Z,6.67
2022-11-05T06:39:16.461Z,6.68
2022-11-05T06:42:12.067Z,6.66
2022-11-05T06:44:37.959Z,6.67
2022-11-05T06:47:07.995Z,6.68
2022-11-05T06:49:38.548Z,6.70
2022-11-05T06:52:08.736Z,6.68
2022-11-05T06:54:41.165Z,6.65
2022-11-05T06:57:12.686Z,6.67
2022-11-05T06:59:43.534Z,6.66
2022-11-05T07:02:14.961Z,6.69
2022-11-05T07:04:45.165Z,6.72
2022-11-05T07:07:15.552Z,6.69
2022-11-05T07:09:47.617Z,6.71
2022-11-05T07:12:17.435Z,6.73
2022-11-05T07:14:48.324Z,6.75
2022-11-05T07:17:20.233Z,6.77
2022-11-05T07:19:52.933Z,6.79
2022-11-05T07:22:23.076Z,6.53
2022-11-05T07:24:58.965Z,6.79
2022-11-05T07:27:30.053Z,6.84
2022-11-05T07:30:01.219Z,6.83
2022-11-05T07:32:31.424Z,6.84
2022-11-05T07:35:02.024Z,6.86
2022-11-05T07:37:32.923Z,6.87
2022-11-05T07:40:06.711Z,6.91
2022-11-05T07:42:38.350Z,6.93
2022-11-05T07:45:10.260Z,6.97
2022-11-05T07:47:42.610Z,6.97
2022-11-05T07:50:16.762Z,6.98
2022-11-05T07:52:48.237Z,6.72
2022-11-05T07:55:22.364Z,7.00
2022-11-05T07:57:53.841Z,7.02
2022-11-05T08:00:29.596Z,7.07
2022-11-05T08:03:07.204Z,7.12
2022-11-05T08:05:40.543Z,7.14
2022-11-05T08:08:11.341Z,7.14
2022-11-05T08:10:45.363Z,7.18
2022-11-05T08:13:16.214Z,7.23
2022-11-05T08:15:47.424Z,7.24
2022-11-05T08:18:19.937Z,7.26
2022-11-05T08:20:53.106Z,6.98
2022-11-05T08:23:24.483Z,7.28
2022-11-05T08:25:57.354Z,7.32
2022-11-05T08:28:29.538Z,7.39
2022-11-05T08:31:01.485Z,7.41
2022-11-05T08:33:31.776Z,7.42
2022-11-05T08:36:05.307Z,7.41
2022-11-05T08:38:37.505Z,7.45
2022-11-05T08:41:10.157Z,7.47
2022-11-05T08:43:43.250Z,7.50
2022-11-05T08:46:15.173Z,7.52
2022-11-05T08:48:45.443Z,7.50
2022-11-05T08:51:17.246Z,7.50
2022-11-05T08:53:47.233Z,7.53
2022-11-05T08:56:21.033Z,7.56
2022-11-05T08:58:51.206Z,7.59
2022-11-05T09:01:24.622Z,7.60
2022-11-05T09:03:55.835Z,7.68
2022-11-05T09:06:27.196Z,7.76
2022-11-05T09:08:57.244Z,7.77
2022-11-05T09:11:49.954Z,7.84
2022-11-05T09:14:22.412Z,7.86
2022-11-05T09:16:52.775Z,7.86
2022-11-05T09:19:23.523Z,7.84
2022-11-05T09:21:55.575Z,7.84
2022-11-05T09:24:28.043Z,7.82
2022-11-05T09:27:04.339Z,7.82
2022-11-05T09:29:36.394Z,7.83
2022-11-05T09:32:07.345Z,7.85
2022-11-05T09:34:38.274Z,7.86
2022-11-05T09:37:09.944Z,7.87
2022-11-05T09:39:39.774Z,7.87
2022-11-05T09:42:16.344Z,7.91
2022-11-05T09:44:51.563Z,7.90
2022-11-05T09:47:27.154Z,7.92
2022-11-05T09:50:03.882Z,7.95
2022-11-05T09:52:37.196Z,8.01
2022-11-05T09:55:20.999Z,8.11
2022-11-05T09:57:57.604Z,8.17
2022-11-05T10:00:31.040Z,8.26
2022-11-05T10:03:06.203Z,8.24
2022-11-05T10:05:39.818Z,8.28
2022-11-05T10:08:19.760Z,8.31
2022-11-05T10:14:20.226Z,8.50
2022-11-05T10:17:22.594Z,8.61
2022-11-05T10:20:27.374Z,8.63
2022-11-05T10:23:01.113Z,8.65
2022-11-05T10:25:38.134Z,8.69
2022-11-05T10:28:37.622Z,8.71
2022-11-05T10:31:14.784Z,8.68
2022-11-05T10:33:47.764Z,8.73
2022-11-05T10:36:23.493Z,8.77
2022-11-05T10:38:54.745Z,8.76
2022-11-05T10:41:50.092Z,8.78
2022-11-05T10:44:32.716Z,8.83
2022-11-05T10:47:19.388Z,8.86
2022-11-05T10:49:59.000Z,8.89
2022-11-05T10:52:33.783Z,8.94
2022-11-05T10:55:06.618Z,8.95
2022-11-05T10:57:39.261Z,9.01
2022-11-05T11:00:31.750Z,8.99
2022-11-05T11:03:06.034Z,9.00
2022-11-05T11:05:40.002Z,8.99
2022-11-05T11:08:24.912Z,9.02
2022-11-05T11:10:59.040Z,9.05
2022-11-05T11:13:31.858Z,9.05
2022-11-05T11:16:18.161Z,9.12
2022-11-05T11:18:55.922Z,9.16
2022-11-05T11:21:26.541Z,9.13
2022-11-05T11:23:59.683Z,9.13
2022-11-05T11:26:32.959Z,9.10
2022-11-05T11:29:10.229Z,9.06
2022-11-05T11:31:41.782Z,9.10
2022-11-05T11:34:22.841Z,9.07
2022-11-05T11:36:58.001Z,9.09
2022-11-05T11:39:31.550Z,9.09
2022-11-05T11:42:04.671Z,9.11
2022-11-05T11:44:42.699Z,9.15
2022-11-05T11:47:15.981Z,9.19
2022-11-05T11:49:52.001Z,9.20
2022-11-05T11:52:29.531Z,9.23
2022-11-05T11:55:22.462Z,9.19
2022-11-05T11:57:55.503Z,9.19
2022-11-05T12:00:27.513Z,9.19
2022-11-05T12:03:20.825Z,9.20
2022-11-05T12:06:02.550Z,9.19
2022-11-05T12:09:01.824Z,9.15
2022-11-05T12:11:41.303Z,9.16
2022-11-05T12:14:27.269Z,9.19
2022-11-05T12:17:12.498Z,9.15
2022-11-05T12:20:01.961Z,9.14
2022-11-05T12:22:50.541Z,9.18
2022-11-05T12:25:29.528Z,9.18
2022-11-05T12:28:16.171Z,9.20
2022-11-05T12:30:56.802Z,9.21
2022-11-05T12:33:39.900Z,9.21
2022-11-05T12:36:28.192Z,9.19
2022-11-05T12:39:37.138Z,9.19
2022-11-05T12:42:16.440Z,9.16
2022-11-05T12:45:05.429Z,9.14
2022-11-05T12:48:10.050Z,9.15
2022-11-05T12:50:47.247Z,9.14
2022-11-05T12:53:40.698Z,9.12
2022-11-05T12:56:22.161Z,9.11
2022-11-05T12:58:59.551Z,9.11
2022-11-05T13:01:36.280Z,9.14
2022-11-05T13:04:12.867Z,9.13
2022-11-05T13:06:48.724Z,9.10
2022-11-05T13:09:25.196Z,9.08
2022-11-05T13:12:04.489Z,9.03
2022-11-05T13:14:41.542Z,9.09
2022-11-05T13:17:17.571Z,9.15
2022-11-05T13:19:53.952Z,9.20
2022-11-05T13:22:31.918Z,9.15
2022-11-05T13:25:08.226Z,9.15
2022-11-05T13:28:00.845Z,9.18
2022-11-05T13:30:37.712Z,9.20
2022-11-05T13:33:16.113Z,9.18
2022-11-05T13:35:50.975Z,9.16
2022-11-05T13:38:45.238Z,9.14
2022-11-05T13:41:29.558Z,9.19
2022-11-05T13:47:45.034Z,9.19
2022-11-05T13:50:34.146Z,9.15
2022-11-05T13:53:33.531Z,9.07
2022-11-05T13:56:15.012Z,9.04
2022-11-05T13:59:13.510Z,8.97
2022-11-05T14:01:50.755Z,8.87
2022-11-05T14:04:34.522Z,8.78
2022-11-05T14:07:13.564Z,8.73
2022-11-05T14:09:45.041Z,8.66
2022-11-05T14:12:25.454Z,8.60
2022-11-05T14:15:03.262Z,8.56
2022-11-05T14:17:39.718Z,8.50
2022-11-05T14:20:59.227Z,8.44
2022-11-05T14:23:54.620Z,8.35
2022-11-05T14:26:27.164Z,8.29
2022-11-05T14:29:39.935Z,8.25
2022-11-05T14:32:27.244Z,8.21
2022-11-05T14:35:06.006Z,8.17
2022-11-05T14:37:48.581Z,8.11
2022-11-05T14:40:39.675Z,7.84
2022-11-05T14:43:23.355Z,8.03
2022-11-05T14:46:02.731Z,8.01
2022-11-05T14:48:43.505Z,7.97
2022-11-05T14:51:27.830Z,7.88
2022-11-05T14:54:21.537Z,7.82
2022-11-05T14:56:59.073Z,7.79
2022-11-05T15:00:04.915Z,7.74
2022-11-05T15:03:01.843Z,7.70
2022-11-05T15:05:52.206Z,7.66
2022-11-05T15:08:56.624Z,7.62
2022-11-05T15:11:35.574Z,7.55
2022-11-05T15:14:16.147Z,7.48
2022-11-05T15:16:56.014Z,7.42
2022-11-05T15:19:34.110Z,7.36
2022-11-05T15:22:13.492Z,7.33
2022-11-05T15:24:45.097Z,7.28
2022-11-05T15:27:22.345Z,7.13
2022-11-05T15:29:52.856Z,7.05
2022-11-05T15:32:28.377Z,7.06
2022-11-05T15:34:58.993Z,7.05
2022-11-05T15:37:29.615Z,6.94
2022-11-05T15:40:00.089Z,6.81
2022-11-05T15:42:31.488Z,6.65
2022-11-05T15:45:06.616Z,6.63
2022-11-05T15:47:43.056Z,6.67
2022-11-05T15:50:19.715Z,6.49
2022-11-05T15:53:14.561Z,6.45
2022-11-05T15:55:55.120Z,6.44
2022-11-05T15:58:33.777Z,6.36
2022-11-05T16:01:06.138Z,6.26
2022-11-05T16:03:40.878Z,6.17
2022-11-05T16:06:15.159Z,6.13
2022-11-05T16:08:54.176Z,6.11
2022-11-05T16:11:30.426Z,6.12
2022-11-05T16:14:18.663Z,6.08
2022-11-05T16:16:51.239Z,6.06
2022-11-05T16:19:44.532Z,6.07
2022-11-05T16:22:16.603Z,5.97
2022-11-05T16:24:50.659Z,5.89
2022-11-05T16:27:24.991Z,5.58
2022-11-05T16:29:58.535Z,5.82
2022-11-05T16:32:32.454Z,5.86
2022-11-05T16:35:05.180Z,5.83
2022-11-05T16:37:45.177Z,5.86
2022-11-05T16:40:22.634Z,5.79
2022-11-05T16:42:57.067Z,5.74
2022-11-05T16:45:30.344Z,5.72
2022-11-05T16:48:00.745Z,5.70
2022-11-05T16:50:34.466Z,5.60
2022-11-05T16:53:04.917Z,5.66
2022-11-05T16:55:37.047Z,5.53
2022-11-05T16:58:09.149Z,5.58
2022-11-05T17:00:41.544Z,5.59
2022-11-05T17:03:12.573Z,5.64
2022-11-05T17:05:42.615Z,5.62
2022-11-05T17:08:13.217Z,5.56
2022-11-05T17:10:43.607Z,5.45
2022-11-05T17:13:17.038Z,5.35
2022-11-05T17:15:51.177Z,5.38
2022-11-05T17:18:21.863Z,5.38
2022-11-05T17:20:53.376Z,5.27
2022-11-05T17:23:24.145Z,5.18
2022-11-05T17:25:55.925Z,5.19
2022-11-05T17:28:27.344Z,5.15
2022-11-05T17:31:01.657Z,5.17
2022-11-05T17:33:32.566Z,5.01
2022-11-05T17:36:08.112Z,4.93
2022-11-05T17:38:38.786Z,4.91
2022-11-05T17:41:13.374Z,4.85
2022-11-05T17:43:44.364Z,4.87
2022-11-05T17:46:17.817Z,4.84
2022-11-05T17:48:48.727Z,4.78
2022-11-05T17:51:20.567Z,4.81
2022-11-05T17:53:51.094Z,4.78
2022-11-05T17:56:33.470Z,4.66
2022-11-05T17:59:05.809Z,4.69
2022-11-05T18:01:41.584Z,4.64
2022-11-05T18:04:12.187Z,4.67
2022-11-05T18:06:42.776Z,4.62
2022-11-05T18:09:14.216Z,4.68
2022-11-05T18:11:47.711Z,4.56
2022-11-05T18:14:24.682Z,4.41
2022-11-05T18:17:00.908Z,4.36
2022-11-05T18:19:32.744Z,4.27
2022-11-05T18:22:03.007Z,4.27
2022-11-05T18:24:37.121Z,4.28
2022-11-05T18:27:08.287Z,4.23
2022-11-05T18:29:39.653Z,4.24
2022-11-05T18:32:11.185Z,4.25
2022-11-05T18:34:43.916Z,4.16
2022-11-05T18:37:15.228Z,4.23
2022-11-05T18:39:48.442Z,4.12
2022-11-05T18:42:18.673Z,4.09
2022-11-05T18:44:51.426Z,4.04
2022-11-05T18:47:23.115Z,4.11
2022-11-05T18:49:54.055Z,3.96
2022-11-05T18:52:30.766Z,3.99
2022-11-05T18:55:02.645Z,3.90
2022-11-05T18:57:36.549Z,3.91
2022-11-05T19:00:08.224Z,3.95
2022-11-05T19:02:40.126Z,3.92
2022-11-05T19:05:28.484Z,3.80
2022-11-05T19:07:59.337Z,3.80
2022-11-05T19:10:30.035Z,3.78
2022-11-05T19:13:00.038Z,3.79
2022-11-05T19:15:30.326Z,3.62
2022-11-05T19:18:01.892Z,3.57
2022-11-05T19:20:37.511Z,3.45
2022-11-05T19:23:07.906Z,3.45
2022-11-05T19:25:39.759Z,3.34
2022-11-05T19:28:09.883Z,3.33
2022-11-05T19:30:40.606Z,3.19
2022-11-05T19:33:12.097Z,3.15
2022-11-05T19:35:43.347Z,3.13
2022-11-05T19:38:13.631Z,3.02
2022-11-05T19:40:44.445Z,2.98
2022-11-05T19:43:14.407Z,2.95
2022-11-05T19:45:45.539Z,3.01
2022-11-05T19:48:19.788Z,3.07
2022-11-05T19:50:50.519Z,3.06
2022-11-05T19:53:20.525Z,3.01
2022-11-05T19:55:50.790Z,2.95
2022-11-05T19:58:20.629Z,2.69
2022-11-05T20:00:50.971Z,2.62
2022-11-05T20:03:22.337Z,2.61
2022-11-05T20:05:52.821Z,2.62
2022-11-05T20:08:22.737Z,2.67
2022-11-05T20:10:56.631Z,2.56
2022-11-05T20:13:27.401Z,2.49
2022-11-05T20:15:58.601Z,2.53
2022-11-05T20:18:30.108Z,2.46
2022-11-05T20:21:05.608Z,2.47
2022-11-05T20:23:36.338Z,2.46
2022-11-05T20:26:08.061Z,2.28
2022-11-05T20:28:39.130Z,2.25
2022-11-05T20:31:11.011Z,2.39
2022-11-05T20:33:42.442Z,2.35
2022-11-05T20:36:16.690Z,2.34
2022-11-05T20:38:50.488Z,2.32
2022-11-05T20:41:21.211Z,2.34
2022-11-05T20:43:51.604Z,2.23
2022-11-05T20:46:23.910Z,2.21
2022-11-05T20:48:56.360Z,2.17
2022-11-05T20:51:26.898Z,2.31
2022-11-05T20:53:58.254Z,2.31
2022-11-05T20:56:34.923Z,2.26
2022-11-05T20:59:05.729Z,2.25
2022-11-05T21:01:37.480Z,2.16
2022-11-05T21:04:08.678Z,2.22
2022-11-05T21:06:39.080Z,2.23
2022-11-05T21:09:09.173Z,2.28
2022-11-05T21:11:53.325Z,2.34
2022-11-05T21:14:23.371Z,2.40
2022-11-05T21:16:53.720Z,2.42
2022-11-05T21:19:25.408Z,2.46
2022-11-05T21:21:55.650Z,2.41
2022-11-05T21:24:25.850Z,2.41
2022-11-05T21:26:59.382Z,2.43
2022-11-05T21:29:31.336Z,2.41
2022-11-05T21:32:03.599Z,2.41
2022-11-05T21:34:36.547Z,2.96
2022-11-05T21:37:07.210Z,3.22
2022-11-05T21:39:39.760Z,3.30
2022-11-05T21:42:10.589Z,3.38
2022-11-05T21:44:40.602Z,3.45
2022-11-05T21:47:11.021Z,3.46
2022-11-05T21:49:42.762Z,3.46
2022-11-05T21:52:31.637Z,3.51
2022-11-05T21:55:18.920Z,3.51
2022-11-05T21:58:06.351Z,3.43
2022-11-05T22:00:36.350Z,3.45
2022-11-05T22:03:06.759Z,3.47
2022-11-05T22:05:38.162Z,3.46
2022-11-05T22:08:09.668Z,3.38
2022-11-05T22:10:39.939Z,3.36
2022-11-05T22:13:10.276Z,3.40
2022-11-05T22:15:40.379Z,3.47
2022-11-05T22:18:10.953Z,3.52
2022-11-05T22:20:42.970Z,3.55
2022-11-05T22:23:13.470Z,3.55
2022-11-05T22:25:43.660Z,3.56
2022-11-05T22:28:15.607Z,3.55
2022-11-05T22:30:46.933Z,3.52
2022-11-05T22:33:17.449Z,3.56
2022-11-05T22:35:49.034Z,3.52
2022-11-05T22:38:19.210Z,3.53
2022-11-05T22:40:49.329Z,3.51
2022-11-05T22:43:19.640Z,3.47
2022-11-05T22:45:50.698Z,3.51
2022-11-05T22:48:20.898Z,3.51
2022-11-05T22:50:52.559Z,3.47
2022-11-05T22:53:22.922Z,3.48
2022-11-05T22:55:53.011Z,3.52
2022-11-05T22:58:23.380Z,3.51
2022-11-05T23:00:53.382Z,3.35
2022-11-05T23:03:23.798Z,3.19
2022-11-05T23:06:01.208Z,3.16
2022-11-05T23:08:49.268Z,3.12
2022-11-05T23:11:39.549Z,3.01
2022-11-05T23:14:12.069Z,3.27
2022-11-05T23:16:59.627Z,3.34
2022-11-05T23:19:47.749Z,3.19
2022-11-05T23:22:38.798Z,2.85
2022-11-05T23:25:11.299Z,2.76
2022-11-05T23:27:42.289Z,2.69
2022-11-05T23:30:20.157Z,2.64
2022-11-05T23:32:49.658Z,2.54
2022-11-05T23:35:40.238Z,2.50
2022-11-05T23:38:29.158Z,2.45
2022-11-05T23:41:17.098Z,2.29
2022-11-05T23:44:04.380Z,2.27
2022-11-05T23:46:52.348Z,2.23
2022-11-05T23:49:22.480Z,1.99
2022-11-05T23:51:52.678Z,1.86
2022-11-05T23:54:24.132Z,1.72
2022-11-05T23:56:54.690Z,1.73
2022-11-05T23:59:24.760Z,1.73
